createdAt,value
2022-07-26T00:00:12.814Z,1.67
2022-07-26T00:02:47.429Z,3.53
2022-07-26T00:05:21.706Z,4.57
2022-07-26T00:07:50.059Z,3.47
2022-07-26T00:10:18.304Z,3.60
2022-07-26T00:12:46.570Z,3.60
2022-07-26T00:15:14.873Z,3.17
2022-07-26T00:17:43.611Z,2.87
2022-07-26T00:20:12.245Z,4.63
2022-07-26T00:22:41.899Z,5.83
2022-07-26T00:25:10.909Z,7.10
2022-07-26T00:27:39.175Z,3.53
2022-07-26T00:30:09.394Z,5.90
2022-07-26T00:32:37.777Z,3.40
2022-07-26T00:35:08.144Z,3.33
2022-07-26T00:37:36.515Z,3.57
2022-07-26T00:40:07.139Z,4.20
2022-07-26T00:42:37.567Z,4.37
2022-07-26T00:45:14.206Z,3.20
2022-07-26T00:47:42.575Z,4.80
2022-07-26T00:50:14.140Z,5.60
2022-07-26T00:52:43.715Z,5.27
2022-07-26T00:55:14.351Z,7.77
2022-07-26T00:57:43.645Z,4.70
2022-07-26T01:00:14.355Z,6.60
2022-07-26T01:02:43.094Z,5.37
2022-07-26T01:05:15.152Z,4.80
2022-07-26T01:07:43.585Z,8.63
2022-07-26T01:10:13.910Z,7.00
2022-07-26T01:12:42.988Z,5.30
2022-07-26T01:15:13.345Z,7.33
2022-07-26T01:17:42.567Z,8.93
2022-07-26T01:20:13.349Z,4.40
2022-07-26T01:22:43.068Z,3.70
2022-07-26T01:25:11.913Z,5.70
2022-07-26T01:27:42.893Z,5.13
2022-07-26T01:30:13.053Z,6.73
2022-07-26T01:32:41.362Z,6.13
2022-07-26T01:35:10.990Z,7.03
2022-07-26T01:37:39.196Z,8.27
2022-07-26T01:40:11.122Z,9.90
2022-07-26T01:42:42.049Z,8.13
2022-07-26T01:45:12.661Z,6.10
2022-07-26T01:47:41.366Z,7.57
2022-07-26T01:50:10.533Z,5.67
2022-07-26T01:52:39.414Z,4.40
2022-07-26T01:55:09.934Z,5.17
2022-07-26T01:57:38.167Z,8.03
2022-07-26T02:00:07.922Z,3.47
2022-07-26T02:02:36.446Z,6.00
2022-07-26T02:05:05.143Z,5.17
2022-07-26T02:07:38.931Z,7.67
2022-07-26T02:10:12.689Z,6.00
2022-07-26T02:12:42.268Z,7.07
2022-07-26T02:15:12.613Z,6.70
2022-07-26T02:17:40.850Z,4.73
2022-07-26T02:20:10.596Z,6.00
2022-07-26T02:22:38.761Z,6.30
2022-07-26T02:25:08.980Z,6.90
2022-07-26T02:27:37.388Z,6.40
2022-07-26T02:30:06.244Z,6.70
2022-07-26T02:32:40.761Z,7.07
2022-07-26T02:35:12.393Z,5.07
2022-07-26T02:37:43.642Z,4.90
2022-07-26T02:40:19.070Z,8.33
2022-07-26T02:42:48.048Z,8.13
2022-07-26T02:45:16.323Z,5.40
2022-07-26T02:47:48.582Z,7.53
2022-07-26T02:50:18.719Z,9.70
2022-07-26T02:52:48.252Z,5.00
2022-07-26T02:55:19.256Z,7.00
2022-07-26T02:57:48.092Z,3.97
2022-07-26T03:00:17.924Z,6.57
2022-07-26T03:02:46.181Z,6.83
2022-07-26T03:05:14.486Z,6.30
2022-07-26T03:07:43.126Z,6.47
2022-07-26T03:10:11.811Z,7.03
2022-07-26T03:12:43.570Z,11.10
2022-07-26T03:15:12.768Z,6.00
2022-07-26T03:17:41.211Z,7.13
2022-07-26T03:20:10.835Z,9.33
2022-07-26T03:22:38.918Z,9.03
2022-07-26T03:25:07.387Z,7.03
2022-07-26T03:27:36.171Z,3.97
2022-07-26T03:30:06.561Z,10.07
2022-07-26T03:32:34.828Z,7.83
2022-07-26T03:35:03.157Z,9.57
2022-07-26T03:37:45.963Z,6.23
2022-07-26T03:40:15.961Z,10.87
2022-07-26T03:42:44.477Z,7.97
2022-07-26T03:45:15.525Z,7.90
2022-07-26T03:47:44.237Z,5.53
2022-07-26T03:50:13.903Z,10.77
2022-07-26T03:52:42.627Z,6.30
2022-07-26T03:55:29.581Z,8.03
2022-07-26T03:58:00.565Z,11.43
2022-07-26T04:00:30.380Z,8.60
2022-07-26T04:02:58.653Z,8.17
2022-07-26T04:05:27.117Z,7.53
2022-07-26T04:07:56.154Z,5.07
2022-07-26T04:10:24.686Z,10.20
2022-07-26T04:12:52.992Z,9.87
2022-07-26T04:15:29.550Z,8.17
2022-07-26T04:17:59.593Z,4.57
2022-07-26T04:20:33.863Z,6.87
2022-07-26T04:23:02.336Z,6.10
2022-07-26T04:25:38.654Z,9.60
2022-07-26T04:28:09.994Z,5.90
2022-07-26T04:30:38.505Z,7.60
2022-07-26T04:33:11.329Z,4.60
2022-07-26T04:35:39.628Z,6.77
2022-07-26T04:38:07.839Z,9.80
2022-07-26T04:40:40.395Z,8.50
2022-07-26T04:43:10.294Z,7.43
2022-07-26T04:45:44.461Z,6.50
2022-07-26T04:48:14.389Z,7.67
2022-07-26T04:50:42.789Z,12.00
2022-07-26T04:53:11.915Z,7.53
2022-07-26T04:55:40.597Z,5.37
2022-07-26T04:58:09.528Z,8.80
2022-07-26T05:01:02.653Z,8.50
2022-07-26T05:03:27.688Z,6.20
2022-07-26T05:05:56.084Z,9.27
2022-07-26T05:08:24.426Z,10.43
2022-07-26T05:10:55.486Z,7.40
2022-07-26T05:13:29.844Z,11.73
2022-07-26T05:16:01.863Z,7.30
2022-07-26T05:18:45.846Z,8.67
2022-07-26T05:21:18.775Z,8.60
2022-07-26T05:23:46.974Z,10.30
2022-07-26T05:26:15.205Z,10.37
2022-07-26T05:28:43.499Z,6.83
2022-07-26T05:31:18.178Z,9.57
2022-07-26T05:33:47.894Z,14.80
2022-07-26T05:36:16.120Z,12.37
2022-07-26T05:38:44.434Z,7.47
2022-07-26T05:41:13.086Z,10.37
2022-07-26T05:43:42.197Z,11.47
2022-07-26T05:46:12.465Z,6.40
2022-07-26T05:48:41.070Z,8.60
2022-07-26T05:51:10.719Z,11.40
2022-07-26T05:53:39.880Z,11.50
2022-07-26T05:56:08.483Z,15.53
2022-07-26T05:58:37.592Z,8.77
2022-07-26T06:01:08.927Z,14.17
2022-07-26T06:03:39.610Z,11.30
2022-07-26T06:06:08.363Z,10.70
2022-07-26T06:08:38.248Z,8.77
2022-07-26T06:11:07.023Z,16.23
2022-07-26T06:13:35.362Z,8.43
2022-07-26T06:16:03.587Z,17.63
2022-07-26T06:18:35.244Z,10.10
2022-07-26T06:21:09.333Z,10.97
2022-07-26T06:23:40.647Z,11.63
2022-07-26T06:26:09.422Z,10.67
2022-07-26T06:28:39.510Z,14.53
2022-07-26T06:31:07.871Z,13.83
2022-07-26T06:33:36.023Z,13.97
2022-07-26T06:36:04.476Z,11.20
2022-07-26T06:38:33.496Z,11.00
2022-07-26T06:41:06.620Z,6.10
2022-07-26T06:43:34.995Z,9.83
2022-07-26T06:46:03.331Z,17.53
2022-07-26T06:48:31.801Z,11.97
2022-07-26T06:51:02.570Z,10.70
2022-07-26T06:53:30.856Z,14.13
2022-07-26T06:55:58.930Z,14.23
2022-07-26T06:58:28.576Z,16.17
2022-07-26T07:00:57.237Z,10.73
2022-07-26T07:03:25.753Z,6.67
2022-07-26T07:06:00.369Z,10.23
2022-07-26T07:08:35.470Z,9.63
2022-07-26T07:11:06.516Z,5.70
2022-07-26T07:13:42.847Z,10.10
2022-07-26T07:16:11.281Z,11.63
2022-07-26T07:18:39.598Z,9.57
2022-07-26T07:21:08.354Z,9.17
2022-07-26T07:23:36.702Z,9.10
2022-07-26T07:26:05.002Z,12.73
2022-07-26T07:28:34.542Z,11.67
2022-07-26T07:31:04.318Z,8.00
2022-07-26T07:33:36.712Z,9.13
2022-07-26T07:36:12.352Z,10.57
2022-07-26T07:38:45.483Z,7.83
2022-07-26T07:41:13.695Z,11.90
2022-07-26T07:43:42.275Z,11.03
2022-07-26T07:46:12.896Z,19.90
2022-07-26T07:48:46.995Z,14.10
2022-07-26T07:51:16.072Z,10.13
2022-07-26T07:53:56.755Z,11.57
2022-07-26T07:56:26.384Z,12.33
2022-07-26T07:58:57.844Z,10.87
2022-07-26T08:01:39.447Z,10.20
2022-07-26T08:04:09.617Z,8.23
2022-07-26T08:06:38.442Z,11.40
2022-07-26T08:09:13.126Z,11.37
2022-07-26T08:11:42.067Z,8.37
2022-07-26T08:14:20.222Z,7.20
2022-07-26T08:16:56.066Z,12.77
2022-07-26T08:19:41.638Z,8.03
2022-07-26T08:22:16.103Z,14.17
2022-07-26T08:24:47.113Z,8.93
2022-07-26T08:27:18.744Z,8.33
2022-07-26T08:29:50.369Z,8.60
2022-07-26T08:32:20.395Z,9.10
2022-07-26T08:34:49.000Z,9.47
2022-07-26T08:37:18.104Z,11.37
2022-07-26T08:39:47.972Z,13.37
2022-07-26T08:42:22.757Z,11.13
2022-07-26T08:44:52.040Z,7.67
2022-07-26T08:47:37.461Z,9.60
2022-07-26T08:50:11.315Z,6.63
2022-07-26T08:52:42.644Z,7.33
2022-07-26T08:55:11.821Z,8.73
2022-07-26T08:57:40.418Z,10.60
2022-07-26T09:00:21.155Z,7.20
2022-07-26T09:02:50.898Z,8.13
2022-07-26T09:05:20.647Z,9.07
2022-07-26T09:07:50.815Z,8.03
2022-07-26T09:10:19.370Z,8.70
2022-07-26T09:12:53.949Z,12.23
2022-07-26T09:15:24.984Z,8.13
2022-07-26T09:17:57.163Z,11.97
2022-07-26T09:23:44.946Z,9.47
2022-07-26T09:26:49.428Z,6.33
2022-07-26T09:30:04.402Z,5.83
2022-07-26T09:32:38.788Z,10.00
2022-07-26T09:35:50.033Z,11.00
2022-07-26T09:38:17.069Z,5.60
2022-07-26T09:40:52.130Z,6.57
2022-07-26T09:43:24.467Z,5.20
2022-07-26T09:46:07.520Z,7.70
2022-07-26T09:51:57.238Z,4.93
2022-07-26T09:54:33.696Z,4.03
2022-07-26T09:57:02.430Z,5.57
2022-07-26T09:59:40.344Z,9.90
2022-07-26T10:02:10.510Z,6.03
2022-07-26T10:04:39.059Z,8.10
2022-07-26T10:07:11.939Z,6.03
2022-07-26T10:09:56.502Z,6.00
2022-07-26T10:12:30.778Z,5.43
2022-07-26T10:14:59.218Z,5.23
2022-07-26T10:17:42.900Z,5.00
2022-07-26T10:20:17.370Z,5.80
2022-07-26T10:22:54.274Z,6.33
2022-07-26T10:25:47.882Z,8.37
2022-07-26T10:28:36.649Z,13.47
2022-07-26T10:31:29.646Z,8.60
2022-07-26T10:33:59.668Z,8.50
2022-07-26T10:36:35.688Z,9.67
2022-07-26T10:39:16.760Z,7.90
2022-07-26T10:41:48.398Z,6.93
2022-07-26T10:44:24.479Z,3.47
2022-07-26T10:47:22.071Z,3.97
2022-07-26T10:49:57.592Z,2.10
2022-07-26T10:52:28.022Z,2.27
2022-07-26T10:55:19.629Z,3.90
2022-07-26T10:57:53.691Z,2.67
2022-07-26T11:00:28.763Z,3.07
2022-07-26T11:03:01.254Z,3.93
2022-07-26T11:05:33.793Z,2.43
2022-07-26T11:08:10.408Z,3.60
2022-07-26T11:10:43.549Z,2.80
2022-07-26T11:13:18.208Z,3.53
2022-07-26T11:15:49.821Z,3.67
2022-07-26T11:18:25.236Z,1.43
2022-07-26T11:21:00.279Z,1.77
2022-07-26T11:23:36.445Z,1.57
2022-07-26T11:26:10.908Z,1.37
2022-07-26T11:28:54.557Z,1.70
2022-07-26T11:31:51.299Z,2.33
2022-07-26T11:34:24.377Z,2.33
2022-07-26T11:36:58.731Z,1.53
2022-07-26T11:39:32.922Z,2.23
2022-07-26T11:42:17.044Z,2.00
2022-07-26T11:44:48.727Z,2.47
2022-07-26T11:47:25.261Z,1.33
2022-07-26T11:50:18.259Z,3.63
2022-07-26T11:52:49.515Z,1.97
2022-07-26T11:55:28.236Z,1.63
2022-07-26T11:58:05.012Z,2.27
2022-07-26T12:00:35.840Z,2.47
2022-07-26T12:03:04.385Z,1.60
2022-07-26T12:05:33.501Z,2.83
2022-07-26T12:08:04.296Z,3.10
2022-07-26T12:10:39.068Z,3.27
2022-07-26T12:13:19.392Z,2.93
2022-07-26T12:15:55.834Z,3.33
2022-07-26T12:18:30.841Z,2.80
2022-07-26T12:21:06.301Z,4.80
2022-07-26T12:23:42.941Z,2.33
2022-07-26T12:26:26.357Z,4.97
2022-07-26T12:28:56.638Z,4.30
2022-07-26T12:31:27.769Z,2.90
2022-07-26T12:33:59.552Z,4.50
2022-07-26T12:36:29.818Z,3.40
2022-07-26T12:38:59.851Z,2.47
2022-07-26T12:41:36.526Z,4.33
2022-07-26T12:44:08.812Z,1.33
2022-07-26T12:46:40.751Z,1.03
2022-07-26T12:49:09.422Z,1.60
2022-07-26T12:51:38.379Z,1.13
2022-07-26T12:54:07.571Z,1.43
2022-07-26T12:56:36.252Z,2.07
2022-07-26T12:59:04.546Z,2.13
2022-07-26T13:01:34.353Z,2.33
2022-07-26T13:04:02.954Z,2.97
2022-07-26T13:06:33.011Z,2.93
2022-07-26T13:09:02.011Z,1.77
2022-07-26T13:11:30.453Z,1.93
2022-07-26T13:13:59.055Z,3.00
2022-07-26T13:16:27.562Z,1.13
2022-07-26T13:18:57.562Z,3.20
2022-07-26T13:21:33.379Z,1.40
2022-07-26T13:24:02.089Z,1.27
2022-07-26T13:26:30.733Z,3.27
2022-07-26T13:29:00.309Z,3.43
2022-07-26T13:31:29.220Z,3.60
2022-07-26T13:33:59.478Z,1.80
2022-07-26T13:36:28.261Z,1.80
2022-07-26T13:38:56.691Z,1.60
2022-07-26T13:41:25.987Z,4.20
2022-07-26T13:43:55.760Z,2.50
2022-07-26T13:46:31.197Z,3.13
2022-07-26T13:49:05.560Z,2.73
2022-07-26T13:51:53.989Z,2.53
2022-07-26T13:54:27.873Z,2.77
2022-07-26T13:57:02.078Z,3.77
2022-07-26T13:59:42.055Z,4.63
2022-07-26T14:02:15.499Z,7.27
2022-07-26T14:04:45.802Z,5.07
2022-07-26T14:07:17.666Z,4.57
2022-07-26T14:09:47.833Z,5.47
2022-07-26T14:12:16.220Z,4.87
2022-07-26T14:14:48.017Z,2.87
2022-07-26T14:17:18.578Z,4.07
2022-07-26T14:19:48.823Z,3.60
2022-07-26T14:22:17.061Z,4.03
2022-07-26T14:24:45.190Z,5.53
2022-07-26T14:27:15.068Z,1.87
2022-07-26T14:29:46.531Z,3.07
2022-07-26T14:32:21.085Z,4.50
2022-07-26T14:34:51.470Z,2.43
2022-07-26T14:37:42.483Z,1.33
2022-07-26T14:40:14.681Z,2.37
2022-07-26T14:42:43.377Z,2.30
2022-07-26T14:45:12.990Z,1.37
2022-07-26T14:47:45.474Z,2.23
2022-07-26T14:50:17.653Z,5.77
2022-07-26T14:52:48.651Z,4.33
2022-07-26T14:55:25.310Z,4.40
2022-07-26T14:57:57.615Z,4.43
2022-07-26T15:00:29.341Z,2.03
2022-07-26T15:03:04.756Z,1.33
2022-07-26T15:05:42.880Z,5.30
2022-07-26T15:08:14.010Z,1.80
2022-07-26T15:10:42.438Z,2.73
2022-07-26T15:13:11.870Z,1.83
2022-07-26T15:15:40.398Z,2.73
2022-07-26T15:18:08.902Z,3.80
2022-07-26T15:20:41.572Z,4.57
2022-07-26T15:23:11.656Z,2.10
2022-07-26T15:25:40.647Z,4.10
2022-07-26T15:28:12.916Z,2.40
2022-07-26T15:30:43.823Z,4.03
2022-07-26T15:33:15.847Z,3.50
2022-07-26T15:35:45.925Z,5.63
